IWY270 MBPV-MYNN
Flight info
| Callsign | IWY270 |
|---|---|
| Flight time | N/A |
| Altitude | 38000 |
| Route | SEAAN |
| Aircraft | CRJ9/M-SDFGIRWY/S |
Departure
| Time | N/A |
|---|---|
| Airport | Providenciales International Airport (MBPV) |
Arrival
| Time | 2026-04-30 22:54 |
|---|---|
| Airport | Lynden Pindling International Airport (MYNN) |
| Time | Latitude | Longitude | Altitude | Speed | Heading |
|---|---|---|---|---|---|
| 2026-04-30 22:45 | 25.36020 | -77.60854 | 7356 ft | 284 kts | 309° |
| 2026-04-30 22:45 | 25.38436 | -77.64089 | 6682 ft | 265 kts | 309° |
| 2026-04-30 22:46 | 25.39989 | -77.67588 | 6123 ft | 253 kts | 266° |
| 2026-04-30 22:47 | 25.34803 | -77.70234 | 5339 ft | 230 kts | 174° |
| 2026-04-30 22:47 | 25.31678 | -77.69771 | 4945 ft | 231 kts | 172° |
| 2026-04-30 22:48 | 25.28222 | -77.69198 | 4580 ft | 268 kts | 172° |
| 2026-04-30 22:49 | 25.22288 | -77.68059 | 3901 ft | 308 kts | 156° |
| 2026-04-30 22:49 | 25.16877 | -77.64813 | 2312 ft | 274 kts | 155° |
| 2026-04-30 22:50 | 25.12928 | -77.59499 | 1939 ft | 191 kts | 118° |
| 2026-04-30 22:51 | 25.11803 | -77.57106 | 2028 ft | 183 kts | 117° |
| 2026-04-30 22:51 | 25.10718 | -77.54581 | 1697 ft | 182 kts | 115° |
| 2026-04-30 22:52 | 25.10105 | -77.53333 | 1244 ft | 187 kts | 122° |
| 2026-04-30 22:52 | 25.08471 | -77.51119 | 552 ft | 187 kts | 136° |
| 2026-04-30 22:53 | 25.06807 | -77.49370 | 349 ft | 158 kts | 137° |
| 2026-04-30 22:53 | 25.05221 | -77.47610 | 47 ft | 159 kts | 136° |
| 2026-04-30 22:53 | 25.04508 | -77.46826 | 20 ft | 123 kts | 135° |
| 2026-04-30 22:54 | 25.03849 | -77.46091 | 18 ft | 45 kts | 135° |
| 2026-04-30 22:55 | 25.03930 | -77.45925 | 16 ft | 12 kts | 313° |
| 2026-04-30 22:55 | 25.04080 | -77.46089 | 15 ft | 19 kts | 314° |
| 2026-04-30 22:56 | 25.04272 | -77.46303 | 15 ft | 20 kts | 314° |
| 2026-04-30 22:56 | 25.04563 | -77.46627 | 16 ft | 18 kts | 314° |
| 2026-04-30 22:57 | 25.04683 | -77.46749 | 16 ft | 6 kts | 355° |
| 2026-04-30 22:57 | 25.04742 | -77.46703 | 15 ft | 5 kts | 43° |
| 2026-04-30 22:58 | 25.04772 | -77.46706 | 15 ft | 2 kts | 305° |
| 2026-04-30 22:59 | 25.04811 | -77.46702 | 15 ft | 5 kts | 47° |
| 2026-04-30 22:59 | 25.04829 | -77.46677 | 15 ft | 0 kts | 33° |